sensor_id;sensor_type;location;lat;lon;timestamp;pressure;altitude;pressure_sealevel;temperature
72236;BMP280;60146;52.498;13.462;2023-11-19T00:01:52;99501.19;;;6.00
72236;BMP280;60146;52.498;13.462;2023-11-19T00:04:18;99501.88;;;6.10
72236;BMP280;60146;52.498;13.462;2023-11-19T00:06:43;99535.16;;;6.08
72236;BMP280;60146;52.498;13.462;2023-11-19T00:09:08;99505.84;;;6.03
72236;BMP280;60146;52.498;13.462;2023-11-19T00:11:34;99512.88;;;6.02
72236;BMP280;60146;52.498;13.462;2023-11-19T00:13:59;99521.63;;;6.11
72236;BMP280;60146;52.498;13.462;2023-11-19T00:16:25;99501.19;;;6.05
72236;BMP280;60146;52.498;13.462;2023-11-19T00:18:50;99497.25;;;6.07
72236;BMP280;60146;52.498;13.462;2023-11-19T00:21:16;99487.94;;;6.01
72236;BMP280;60146;52.498;13.462;2023-11-19T00:23:41;99493.28;;;6.10
72236;BMP280;60146;52.498;13.462;2023-11-19T00:26:07;99501.84;;;6.15
72236;BMP280;60146;52.498;13.462;2023-11-19T00:28:33;99527.84;;;6.15
72236;BMP280;60146;52.498;13.462;2023-11-19T00:30:59;99540.38;;;6.08
72236;BMP280;60146;52.498;13.462;2023-11-19T00:33:24;99520.56;;;6.12
72236;BMP280;60146;52.498;13.462;2023-11-19T00:35:49;99506.28;;;6.15
72236;BMP280;60146;52.498;13.462;2023-11-19T00:38:16;99517.16;;;6.17
72236;BMP280;60146;52.498;13.462;2023-11-19T00:40:41;99532.50;;;6.18
72236;BMP280;60146;52.498;13.462;2023-11-19T00:43:07;99516.34;;;6.21
72236;BMP280;60146;52.498;13.462;2023-11-19T00:45:32;99517.47;;;6.10
72236;BMP280;60146;52.498;13.462;2023-11-19T00:47:58;99484.59;;;6.24
72236;BMP280;60146;52.498;13.462;2023-11-19T00:50:25;99490.34;;;6.21
72236;BMP280;60146;52.498;13.462;2023-11-19T00:52:50;99514.56;;;6.17
72236;BMP280;60146;52.498;13.462;2023-11-19T00:55:16;99509.59;;;6.20
72236;BMP280;60146;52.498;13.462;2023-11-19T00:57:42;99519.50;;;6.18
72236;BMP280;60146;52.498;13.462;2023-11-19T01:00:08;99528.63;;;6.16
72236;BMP280;60146;52.498;13.462;2023-11-19T01:02:43;99504.66;;;6.18
72236;BMP280;60146;52.498;13.462;2023-11-19T01:05:08;99508.03;;;6.19
72236;BMP280;60146;52.498;13.462;2023-11-19T01:07:34;99523.66;;;6.19
72236;BMP280;60146;52.498;13.462;2023-11-19T01:09:59;99508.31;;;6.18
72236;BMP280;60146;52.498;13.462;2023-11-19T01:12:25;99513.31;;;6.14
72236;BMP280;60146;52.498;13.462;2023-11-19T01:14:50;99489.34;;;6.17
72236;BMP280;60146;52.498;13.462;2023-11-19T01:17:15;99488.97;;;6.23
72236;BMP280;60146;52.498;13.462;2023-11-19T01:19:41;99474.69;;;6.26
72236;BMP280;60146;52.498;13.462;2023-11-19T01:22:06;99496.00;;;6.23
72236;BMP280;60146;52.498;13.462;2023-11-19T01:24:32;99490.78;;;6.28
72236;BMP280;60146;52.498;13.462;2023-11-19T01:26:57;99449.66;;;6.30
72236;BMP280;60146;52.498;13.462;2023-11-19T01:29:25;99491.53;;;6.33
72236;BMP280;60146;52.498;13.462;2023-11-19T01:31:50;99507.31;;;6.37
72236;BMP280;60146;52.498;13.462;2023-11-19T01:34:18;99512.81;;;6.35
72236;BMP280;60146;52.498;13.462;2023-11-19T01:36:44;99525.53;;;6.37
72236;BMP280;60146;52.498;13.462;2023-11-19T01:39:11;99515.41;;;6.35
72236;BMP280;60146;52.498;13.462;2023-11-19T01:41:37;99533.34;;;6.37
72236;BMP280;60146;52.498;13.462;2023-11-19T01:44:06;99496.41;;;6.35
72236;BMP280;60146;52.498;13.462;2023-11-19T01:46:31;99505.28;;;6.34
72236;BMP280;60146;52.498;13.462;2023-11-19T01:48:58;99501.63;;;6.35
72236;BMP280;60146;52.498;13.462;2023-11-19T01:51:24;99493.53;;;6.36
72236;BMP280;60146;52.498;13.462;2023-11-19T01:53:50;99471.97;;;6.36
72236;BMP280;60146;52.498;13.462;2023-11-19T01:56:15;99488.56;;;6.39
72236;BMP280;60146;52.498;13.462;2023-11-19T01:58:43;99434.56;;;6.32
72236;BMP280;60146;52.498;13.462;2023-11-19T02:01:09;99405.47;;;6.30
72236;BMP280;60146;52.498;13.462;2023-11-19T02:03:36;99369.41;;;6.41
72236;BMP280;60146;52.498;13.462;2023-11-19T02:06:02;99373.13;;;6.36
72236;BMP280;60146;52.498;13.462;2023-11-19T02:08:29;99336.72;;;6.36
72236;BMP280;60146;52.498;13.462;2023-11-19T02:10:54;99310.72;;;6.36
72236;BMP280;60146;52.498;13.462;2023-11-19T02:13:23;99273.53;;;6.35
72236;BMP280;60146;52.498;13.462;2023-11-19T02:15:50;99239.25;;;6.33
72236;BMP280;60146;52.498;13.462;2023-11-19T02:20:50;99164.19;;;6.27
72236;BMP280;60146;52.498;13.462;2023-11-19T02:23:16;99166.44;;;6.33
72236;BMP280;60146;52.498;13.462;2023-11-19T02:25:43;99167.97;;;6.34
72236;BMP280;60146;52.498;13.462;2023-11-19T02:28:11;99151.97;;;6.27
72236;BMP280;60146;52.498;13.462;2023-11-19T02:30:38;99148.69;;;6.35
72236;BMP280;60146;52.498;13.462;2023-11-19T02:33:03;99144.75;;;6.38
72236;BMP280;60146;52.498;13.462;2023-11-19T02:35:31;99159.88;;;6.36
72236;BMP280;60146;52.498;13.462;2023-11-19T02:37:57;99144.75;;;6.38
72236;BMP280;60146;52.498;13.462;2023-11-19T02:40:24;99148.25;;;6.46
72236;BMP280;60146;52.498;13.462;2023-11-19T02:42:50;99132.63;;;6.46
72236;BMP280;60146;52.498;13.462;2023-11-19T02:45:16;99155.47;;;6.49
72236;BMP280;60146;52.498;13.462;2023-11-19T02:47:41;99143.13;;;6.41
72236;BMP280;60146;52.498;13.462;2023-11-19T02:50:13;99140.84;;;6.53
72236;BMP280;60146;52.498;13.462;2023-11-19T02:52:44;99166.78;;;6.58
72236;BMP280;60146;52.498;13.462;2023-11-19T02:55:11;99159.56;;;6.55
72236;BMP280;60146;52.498;13.462;2023-11-19T02:57:40;99143.47;;;6.53
72236;BMP280;60146;52.498;13.462;2023-11-19T03:00:14;99144.34;;;6.62
72236;BMP280;60146;52.498;13.462;2023-11-19T03:02:40;99138.63;;;6.60
72236;BMP280;60146;52.498;13.462;2023-11-19T03:05:14;99133.94;;;6.62
72236;BMP280;60146;52.498;13.462;2023-11-19T03:07:43;99128.34;;;6.68
72236;BMP280;60146;52.498;13.462;2023-11-19T03:10:10;99125.63;;;6.60
72236;BMP280;60146;52.498;13.462;2023-11-19T03:12:39;99122.94;;;6.65
72236;BMP280;60146;52.498;13.462;2023-11-19T03:15:05;99113.50;;;6.69
72236;BMP280;60146;52.498;13.462;2023-11-19T03:17:30;99141.84;;;6.70
72236;BMP280;60146;52.498;13.462;2023-11-19T03:19:56;99149.84;;;6.74
72236;BMP280;60146;52.498;13.462;2023-11-19T03:22:21;99154.19;;;6.78
72236;BMP280;60146;52.498;13.462;2023-11-19T03:24:47;99146.75;;;6.72
72236;BMP280;60146;52.498;13.462;2023-11-19T03:27:12;99153.50;;;6.73
72236;BMP280;60146;52.498;13.462;2023-11-19T03:29:38;99145.13;;;6.76
72236;BMP280;60146;52.498;13.462;2023-11-19T03:32:04;99148.00;;;6.74
72236;BMP280;60146;52.498;13.462;2023-11-19T03:34:29;99135.97;;;6.78
72236;BMP280;60146;52.498;13.462;2023-11-19T03:36:55;99104.53;;;6.75
72236;BMP280;60146;52.498;13.462;2023-11-19T03:39:22;99054.13;;;6.71
72236;BMP280;60146;52.498;13.462;2023-11-19T03:41:50;98953.91;;;6.60
72236;BMP280;60146;52.498;13.462;2023-11-19T03:44:15;98843.81;;;6.51
72236;BMP280;60146;52.498;13.462;2023-11-19T03:46:40;98711.66;;;6.32
72236;BMP280;60146;52.498;13.462;2023-11-19T03:49:06;98597.69;;;6.25
72236;BMP280;60146;52.498;13.462;2023-11-19T03:51:35;98491.50;;;6.11
72236;BMP280;60146;52.498;13.462;2023-11-19T03:54:00;98379.63;;;6.07
72236;BMP280;60146;52.498;13.462;2023-11-19T03:56:26;98255.91;;;5.98
72236;BMP280;60146;52.498;13.462;2023-11-19T03:58:52;98125.72;;;5.99
72236;BMP280;60146;52.498;13.462;2023-11-19T04:01:18;98061.53;;;5.92
72236;BMP280;60146;52.498;13.462;2023-11-19T04:03:43;97989.56;;;5.92
72236;BMP280;60146;52.498;13.462;2023-11-19T04:06:09;97919.13;;;5.94
72236;BMP280;60146;52.498;13.462;2023-11-19T04:08:35;97852.88;;;5.79
72236;BMP280;60146;52.498;13.462;2023-11-19T04:11:02;97788.59;;;5.76
72236;BMP280;60146;52.498;13.462;2023-11-19T04:13:27;97695.66;;;5.82
72236;BMP280;60146;52.498;13.462;2023-11-19T04:15:53;97633.75;;;5.84
72236;BMP280;60146;52.498;13.462;2023-11-19T04:18:18;97612.78;;;5.77
72236;BMP280;60146;52.498;13.462;2023-11-19T04:20:43;97575.66;;;5.76
72236;BMP280;60146;52.498;13.462;2023-11-19T04:23:09;97543.59;;;5.73
72236;BMP280;60146;52.498;13.462;2023-11-19T04:25:35;97522.84;;;5.73
72236;BMP280;60146;52.498;13.462;2023-11-19T04:28:01;97511.19;;;5.78
72236;BMP280;60146;52.498;13.462;2023-11-19T04:30:27;97511.94;;;5.79
72236;BMP280;60146;52.498;13.462;2023-11-19T04:32:52;97514.09;;;5.77
72236;BMP280;60146;52.498;13.462;2023-11-19T04:35:18;97537.00;;;5.75
72236;BMP280;60146;52.498;13.462;2023-11-19T04:37:44;97519.50;;;5.84
72236;BMP280;60146;52.498;13.462;2023-11-19T04:40:10;97540.06;;;5.77
72236;BMP280;60146;52.498;13.462;2023-11-19T04:42:37;97542.66;;;5.77
72236;BMP280;60146;52.498;13.462;2023-11-19T04:45:06;97539.31;;;5.76
72236;BMP280;60146;52.498;13.462;2023-11-19T04:47:32;97517.97;;;5.83
72236;BMP280;60146;52.498;13.462;2023-11-19T04:49:58;97521.16;;;5.88
72236;BMP280;60146;52.498;13.462;2023-11-19T04:52:23;97514.31;;;5.84
72236;BMP280;60146;52.498;13.462;2023-11-19T04:54:48;97501.56;;;5.91
72236;BMP280;60146;52.498;13.462;2023-11-19T04:57:14;97516.47;;;5.82
72236;BMP280;60146;52.498;13.462;2023-11-19T04:59:39;97495.50;;;5.87
72236;BMP280;60146;52.498;13.462;2023-11-19T05:02:05;97465.66;;;5.93
72236;BMP280;60146;52.498;13.462;2023-11-19T05:04:31;97448.53;;;5.92
72236;BMP280;60146;52.498;13.462;2023-11-19T05:06:56;97439.56;;;5.89
72236;BMP280;60146;52.498;13.462;2023-11-19T05:09:22;97413.91;;;5.88
72236;BMP280;60146;52.498;13.462;2023-11-19T05:11:47;97416.31;;;5.81
72236;BMP280;60146;52.498;13.462;2023-11-19T05:14:13;97403.72;;;5.83
72236;BMP280;60146;52.498;13.462;2023-11-19T05:16:41;97376.47;;;5.89
72236;BMP280;60146;52.498;13.462;2023-11-19T05:19:08;97368.13;;;5.83
72236;BMP280;60146;52.498;13.462;2023-11-19T05:21:34;97351.47;;;5.84
72236;BMP280;60146;52.498;13.462;2023-11-19T05:23:59;97336.88;;;5.80
72236;BMP280;60146;52.498;13.462;2023-11-19T05:26:26;97323.47;;;5.78
72236;BMP280;60146;52.498;13.462;2023-11-19T05:28:51;97290.91;;;5.80
72236;BMP280;60146;52.498;13.462;2023-11-19T05:31:17;97267.19;;;5.82
72236;BMP280;60146;52.498;13.462;2023-11-19T05:33:43;97212.25;;;5.80
72236;BMP280;60146;52.498;13.462;2023-11-19T05:36:10;97173.03;;;5.85
72236;BMP280;60146;52.498;13.462;2023-11-19T05:38:36;97094.72;;;5.83
72236;BMP280;60146;52.498;13.462;2023-11-19T05:41:02;97045.25;;;5.91
72236;BMP280;60146;52.498;13.462;2023-11-19T05:43:27;97051.34;;;5.83
72236;BMP280;60146;52.498;13.462;2023-11-19T05:45:53;97081.69;;;5.79
72236;BMP280;60146;52.498;13.462;2023-11-19T05:48:18;97054.56;;;5.92
72236;BMP280;60146;52.498;13.462;2023-11-19T05:50:44;97055.78;;;5.83
72236;BMP280;60146;52.498;13.462;2023-11-19T05:53:10;97002.63;;;5.92
72236;BMP280;60146;52.498;13.462;2023-11-19T05:55:38;96983.84;;;5.83
72236;BMP280;60146;52.498;13.462;2023-11-19T05:58:11;96955.38;;;5.87
72236;BMP280;60146;52.498;13.462;2023-11-19T06:00:38;96918.69;;;5.88
72236;BMP280;60146;52.498;13.462;2023-11-19T06:03:04;96889.78;;;5.90
72236;BMP280;60146;52.498;13.462;2023-11-19T06:05:29;96891.97;;;5.88
72236;BMP280;60146;52.498;13.462;2023-11-19T06:07:54;96872.78;;;5.92
72236;BMP280;60146;52.498;13.462;2023-11-19T06:10:20;96856.94;;;5.97
72236;BMP280;60146;52.498;13.462;2023-11-19T06:12:45;96876.53;;;5.95
72236;BMP280;60146;52.498;13.462;2023-11-19T06:15:11;96879.97;;;5.98
72236;BMP280;60146;52.498;13.462;2023-11-19T06:17:36;96883.81;;;6.04
72236;BMP280;60146;52.498;13.462;2023-11-19T06:20:04;96888.53;;;5.99
72236;BMP280;60146;52.498;13.462;2023-11-19T06:22:30;96885.50;;;5.97
72236;BMP280;60146;52.498;13.462;2023-11-19T06:24:56;96890.53;;;6.05
72236;BMP280;60146;52.498;13.462;2023-11-19T06:27:21;96870.19;;;6.07
72236;BMP280;60146;52.498;13.462;2023-11-19T06:29:47;96859.38;;;6.05
72236;BMP280;60146;52.498;13.462;2023-11-19T06:32:13;96894.28;;;6.08
72236;BMP280;60146;52.498;13.462;2023-11-19T06:34:38;96914.38;;;6.11
72236;BMP280;60146;52.498;13.462;2023-11-19T06:37:03;96941.53;;;6.13
72236;BMP280;60146;52.498;13.462;2023-11-19T06:39:29;96951.91;;;6.13
72236;BMP280;60146;52.498;13.462;2023-11-19T06:41:55;96978.34;;;6.15
72236;BMP280;60146;52.498;13.462;2023-11-19T06:44:20;96979.50;;;6.18
72236;BMP280;60146;52.498;13.462;2023-11-19T06:46:45;96969.19;;;6.21
72236;BMP280;60146;52.498;13.462;2023-11-19T06:49:11;96993.59;;;6.17
72236;BMP280;60146;52.498;13.462;2023-11-19T06:51:41;97020.53;;;6.12
72236;BMP280;60146;52.498;13.462;2023-11-19T06:54:06;97030.59;;;6.14
72236;BMP280;60146;52.498;13.462;2023-11-19T06:56:32;97042.94;;;6.17
72236;BMP280;60146;52.498;13.462;2023-11-19T06:58:57;97041.00;;;6.14
72236;BMP280;60146;52.498;13.462;2023-11-19T07:01:22;97036.00;;;6.20
72236;BMP280;60146;52.498;13.462;2023-11-19T07:03:48;97062.06;;;6.24
72236;BMP280;60146;52.498;13.462;2023-11-19T07:06:14;97091.97;;;6.18
72236;BMP280;60146;52.498;13.462;2023-11-19T07:08:41;97116.28;;;6.25
72236;BMP280;60146;52.498;13.462;2023-11-19T07:11:07;97143.84;;;6.30
72236;BMP280;60146;52.498;13.462;2023-11-19T07:13:35;97159.03;;;6.28
72236;BMP280;60146;52.498;13.462;2023-11-19T07:16:00;97186.69;;;6.36
72236;BMP280;60146;52.498;13.462;2023-11-19T07:18:25;97229.59;;;6.30
72236;BMP280;60146;52.498;13.462;2023-11-19T07:20:51;97267.50;;;6.31
72236;BMP280;60146;52.498;13.462;2023-11-19T07:23:17;97299.22;;;6.36
72236;BMP280;60146;52.498;13.462;2023-11-19T07:25:43;97310.34;;;6.37
72236;BMP280;60146;52.498;13.462;2023-11-19T07:28:10;97324.88;;;6.38
72236;BMP280;60146;52.498;13.462;2023-11-19T07:30:35;97336.09;;;6.41
72236;BMP280;60146;52.498;13.462;2023-11-19T07:33:00;97346.09;;;6.39
72236;BMP280;60146;52.498;13.462;2023-11-19T07:35:26;97354.75;;;6.43
72236;BMP280;60146;52.498;13.462;2023-11-19T07:37:51;97392.25;;;6.42
72236;BMP280;60146;52.498;13.462;2023-11-19T07:40:16;97398.25;;;6.46
72236;BMP280;60146;52.498;13.462;2023-11-19T07:42:42;97410.84;;;6.44
72236;BMP280;60146;52.498;13.462;2023-11-19T07:45:07;97327.25;;;6.42
72236;BMP280;60146;52.498;13.462;2023-11-19T07:47:33;97342.59;;;6.47
72236;BMP280;60146;52.498;13.462;2023-11-19T07:49:59;97374.75;;;6.55
72236;BMP280;60146;52.498;13.462;2023-11-19T07:52:24;97395.56;;;6.55
72236;BMP280;60146;52.498;13.462;2023-11-19T07:54:50;97410.34;;;6.66
72236;BMP280;60146;52.498;13.462;2023-11-19T07:57:15;97429.00;;;6.68
72236;BMP280;60146;52.498;13.462;2023-11-19T07:59:40;97428.53;;;6.78
72236;BMP280;60146;52.498;13.462;2023-11-19T08:02:06;97476.00;;;6.75
72236;BMP280;60146;52.498;13.462;2023-11-19T08:04:31;97522.59;;;6.80
72236;BMP280;60146;52.498;13.462;2023-11-19T08:06:56;97591.28;;;6.79
72236;BMP280;60146;52.498;13.462;2023-11-19T08:09:22;97665.00;;;6.71
72236;BMP280;60146;52.498;13.462;2023-11-19T08:11:48;97725.84;;;6.90
72236;BMP280;60146;52.498;13.462;2023-11-19T08:14:13;97754.00;;;6.88
72236;BMP280;60146;52.498;13.462;2023-11-19T08:16:39;97784.44;;;6.87
72236;BMP280;60146;52.498;13.462;2023-11-19T08:19:05;97741.13;;;6.91
72236;BMP280;60146;52.498;13.462;2023-11-19T08:21:30;97749.38;;;6.93
72236;BMP280;60146;52.498;13.462;2023-11-19T08:23:56;97770.06;;;7.02
72236;BMP280;60146;52.498;13.462;2023-11-19T08:26:21;97807.50;;;7.09
72236;BMP280;60146;52.498;13.462;2023-11-19T08:28:46;97891.66;;;7.13
72236;BMP280;60146;52.498;13.462;2023-11-19T08:31:12;98059.13;;;7.17
72236;BMP280;60146;52.498;13.462;2023-11-19T08:33:37;98171.00;;;7.25
72236;BMP280;60146;52.498;13.462;2023-11-19T08:36:03;98151.53;;;7.31
72236;BMP280;60146;52.498;13.462;2023-11-19T08:38:29;98167.47;;;7.29
72236;BMP280;60146;52.498;13.462;2023-11-19T08:40:55;98139.03;;;7.44
72236;BMP280;60146;52.498;13.462;2023-11-19T08:43:25;98139.56;;;7.38
72236;BMP280;60146;52.498;13.462;2023-11-19T08:45:51;98163.59;;;7.35
72236;BMP280;60146;52.498;13.462;2023-11-19T08:48:16;98160.00;;;7.48
72236;BMP280;60146;52.498;13.462;2023-11-19T08:50:41;98173.59;;;7.53
72236;BMP280;60146;52.498;13.462;2023-11-19T08:53:07;98191.75;;;7.62
72236;BMP280;60146;52.498;13.462;2023-11-19T08:55:32;98218.94;;;7.72
72236;BMP280;60146;52.498;13.462;2023-11-19T08:57:57;98244.47;;;7.87
72236;BMP280;60146;52.498;13.462;2023-11-19T09:00:23;98207.66;;;7.88
72236;BMP280;60146;52.498;13.462;2023-11-19T09:02:48;98173.06;;;8.00
72236;BMP280;60146;52.498;13.462;2023-11-19T09:05:14;98169.38;;;8.01
72236;BMP280;60146;52.498;13.462;2023-11-19T09:07:39;98193.03;;;7.96
72236;BMP280;60146;52.498;13.462;2023-11-19T09:10:05;98178.47;;;7.95
72236;BMP280;60146;52.498;13.462;2023-11-19T09:12:31;98168.97;;;8.10
72236;BMP280;60146;52.498;13.462;2023-11-19T09:14:56;98151.19;;;8.12
72236;BMP280;60146;52.498;13.462;2023-11-19T09:17:21;98141.50;;;8.13
72236;BMP280;60146;52.498;13.462;2023-11-19T09:19:47;98136.00;;;8.26
72236;BMP280;60146;52.498;13.462;2023-11-19T09:22:12;98125.13;;;8.24
72236;BMP280;60146;52.498;13.462;2023-11-19T09:24:37;98118.28;;;8.31
72236;BMP280;60146;52.498;13.462;2023-11-19T09:27:03;98099.72;;;8.56
72236;BMP280;60146;52.498;13.462;2023-11-19T09:29:31;98068.63;;;8.63
72236;BMP280;60146;52.498;13.462;2023-11-19T09:31:57;98043.47;;;8.94
72236;BMP280;60146;52.498;13.462;2023-11-19T09:34:23;98031.81;;;9.03
72236;BMP280;60146;52.498;13.462;2023-11-19T09:36:48;98013.47;;;9.15
72236;BMP280;60146;52.498;13.462;2023-11-19T09:39:13;97974.13;;;9.35
72236;BMP280;60146;52.498;13.462;2023-11-19T09:41:44;97934.38;;;9.72
72236;BMP280;60146;52.498;13.462;2023-11-19T09:44:10;97916.88;;;9.91
72236;BMP280;60146;52.498;13.462;2023-11-19T09:46:38;97881.13;;;9.94
72236;BMP280;60146;52.498;13.462;2023-11-19T09:49:04;97843.81;;;9.97
72236;BMP280;60146;52.498;13.462;2023-11-19T09:51:32;97720.75;;;11.19
72236;BMP280;60146;52.498;13.462;2023-11-19T09:53:58;97595.28;;;12.14
72236;BMP280;60146;52.498;13.462;2023-11-19T09:56:23;97556.31;;;11.77
72236;BMP280;60146;52.498;13.462;2023-11-19T09:58:49;97310.13;;;12.79
72236;BMP280;60146;52.498;13.462;2023-11-19T10:01:14;97031.53;;;13.10
72236;BMP280;60146;52.498;13.462;2023-11-19T10:03:40;97059.56;;;12.26
72236;BMP280;60146;52.498;13.462;2023-11-19T10:06:09;97089.56;;;11.97
72236;BMP280;60146;52.498;13.462;2023-11-19T10:08:38;97115.00;;;11.77
72236;BMP280;60146;52.498;13.462;2023-11-19T10:11:07;97124.00;;;11.76
72236;BMP280;60146;52.498;13.462;2023-11-19T10:13:36;97116.50;;;11.77
72236;BMP280;60146;52.498;13.462;2023-11-19T10:16:11;97136.66;;;11.50
72236;BMP280;60146;52.498;13.462;2023-11-19T10:18:42;97149.00;;;11.49
72236;BMP280;60146;52.498;13.462;2023-11-19T10:21:08;97038.19;;;12.41
72236;BMP280;60146;52.498;13.462;2023-11-19T10:23:55;96911.34;;;13.24
72236;BMP280;60146;52.498;13.462;2023-11-19T10:26:23;96989.09;;;13.72
72236;BMP280;60146;52.498;13.462;2023-11-19T10:28:49;97053.31;;;13.17
72236;BMP280;60146;52.498;13.462;2023-11-19T10:31:18;97037.03;;;12.59
72236;BMP280;60146;52.498;13.462;2023-11-19T10:33:44;97005.94;;;12.44
72236;BMP280;60146;52.498;13.462;2023-11-19T10:36:11;96981.97;;;12.28
72236;BMP280;60146;52.498;13.462;2023-11-19T10:38:40;96832.63;;;13.47
72236;BMP280;60146;52.498;13.462;2023-11-19T10:41:06;96881.22;;;14.66
72236;BMP280;60146;52.498;13.462;2023-11-19T10:43:43;97171.88;;;15.25
72236;BMP280;60146;52.498;13.462;2023-11-19T10:46:13;97328.03;;;15.82
72236;BMP280;60146;52.498;13.462;2023-11-19T10:48:39;97441.50;;;15.46
72236;BMP280;60146;52.498;13.462;2023-11-19T10:51:06;97355.41;;;14.76
72236;BMP280;60146;52.498;13.462;2023-11-19T10:53:38;97172.31;;;14.02
72236;BMP280;60146;52.498;13.462;2023-11-19T10:56:10;97088.88;;;13.92
72236;BMP280;60146;52.498;13.462;2023-11-19T10:58:36;97040.47;;;13.30
72236;BMP280;60146;52.498;13.462;2023-11-19T11:01:32;96931.09;;;13.42
72236;BMP280;60146;52.498;13.462;2023-11-19T11:03:59;96933.06;;;13.28
72236;BMP280;60146;52.498;13.462;2023-11-19T11:06:26;96950.16;;;13.53
72236;BMP280;60146;52.498;13.462;2023-11-19T11:08:52;96938.25;;;13.42
72236;BMP280;60146;52.498;13.462;2023-11-19T11:11:18;96890.91;;;13.45
72236;BMP280;60146;52.498;13.462;2023-11-19T11:13:47;96885.47;;;13.59
72236;BMP280;60146;52.498;13.462;2023-11-19T11:16:13;96909.47;;;13.64
72236;BMP280;60146;52.498;13.462;2023-11-19T11:18:39;96969.59;;;13.66
72236;BMP280;60146;52.498;13.462;2023-11-19T11:21:08;96967.31;;;13.68
72236;BMP280;60146;52.498;13.462;2023-11-19T11:26:45;97100.44;;;14.08
72236;BMP280;60146;52.498;13.462;2023-11-19T11:29:26;97108.97;;;14.26
72236;BMP280;60146;52.498;13.462;2023-11-19T11:32:14;97105.91;;;14.27
72236;BMP280;60146;52.498;13.462;2023-11-19T11:38:01;97111.31;;;14.14
72236;BMP280;60146;52.498;13.462;2023-11-19T11:40:28;97093.91;;;14.23
72236;BMP280;60146;52.498;13.462;2023-11-19T11:42:53;97143.44;;;14.38
72236;BMP280;60146;52.498;13.462;2023-11-19T11:45:19;97157.13;;;14.62
72236;BMP280;60146;52.498;13.462;2023-11-19T11:50:35;97196.84;;;14.81
72236;BMP280;60146;52.498;13.462;2023-11-19T11:55:35;97232.38;;;15.06
72236;BMP280;60146;52.498;13.462;2023-11-19T11:58:02;97247.03;;;15.11
72236;BMP280;60146;52.498;13.462;2023-11-19T12:00:29;97267.22;;;15.24
72236;BMP280;60146;52.498;13.462;2023-11-19T12:02:56;97289.53;;;15.19
72236;BMP280;60146;52.498;13.462;2023-11-19T12:05:23;97260.09;;;14.85
72236;BMP280;60146;52.498;13.462;2023-11-19T12:08:01;97153.06;;;14.55
72236;BMP280;60146;52.498;13.462;2023-11-19T12:13:08;97096.75;;;14.42
72236;BMP280;60146;52.498;13.462;2023-11-19T12:18:31;97110.94;;;14.12
72236;BMP280;60146;52.498;13.462;2023-11-19T12:20:58;97071.94;;;14.00
72236;BMP280;60146;52.498;13.462;2023-11-19T12:23:28;97070.00;;;14.04
72236;BMP280;60146;52.498;13.462;2023-11-19T12:25:54;97088.09;;;13.98
72236;BMP280;60146;52.498;13.462;2023-11-19T12:28:20;97079.47;;;13.98
72236;BMP280;60146;52.498;13.462;2023-11-19T12:30:45;97067.81;;;13.96
72236;BMP280;60146;52.498;13.462;2023-11-19T12:33:12;97076.09;;;13.94
72236;BMP280;60146;52.498;13.462;2023-11-19T12:35:42;97043.47;;;13.88
72236;BMP280;60146;52.498;13.462;2023-11-19T12:38:18;96988.56;;;13.87
72236;BMP280;60146;52.498;13.462;2023-11-19T12:40:43;96959.41;;;13.71
72236;BMP280;60146;52.498;13.462;2023-11-19T12:43:09;96919.22;;;13.67
72236;BMP280;60146;52.498;13.462;2023-11-19T12:45:35;96944.09;;;13.63
72236;BMP280;60146;52.498;13.462;2023-11-19T12:48:05;96923.47;;;13.55
72236;BMP280;60146;52.498;13.462;2023-11-19T12:50:50;96874.66;;;13.54
72236;BMP280;60146;52.498;13.462;2023-11-19T12:53:15;96841.34;;;13.40
72236;BMP280;60146;52.498;13.462;2023-11-19T12:55:41;96878.84;;;13.51
72236;BMP280;60146;52.498;13.462;2023-11-19T12:58:06;96889.34;;;13.51
72236;BMP280;60146;52.498;13.462;2023-11-19T13:00:32;96971.84;;;13.64
72236;BMP280;60146;52.498;13.462;2023-11-19T13:02:57;97012.00;;;13.75
72236;BMP280;60146;52.498;13.462;2023-11-19T13:05:33;97038.28;;;13.78
72236;BMP280;60146;52.498;13.462;2023-11-19T13:08:05;97053.00;;;13.65
72236;BMP280;60146;52.498;13.462;2023-11-19T13:10:50;97098.41;;;13.79
72236;BMP280;60146;52.498;13.462;2023-11-19T13:13:16;97114.50;;;13.92
72236;BMP280;60146;52.498;13.462;2023-11-19T13:15:41;97128.66;;;14.04
72236;BMP280;60146;52.498;13.462;2023-11-19T13:18:08;97285.34;;;14.79
72236;BMP280;60146;52.498;13.462;2023-11-19T13:20:33;97511.31;;;15.81
72236;BMP280;60146;52.498;13.462;2023-11-19T13:23:03;97800.66;;;16.46
72236;BMP280;60146;52.498;13.462;2023-11-19T13:25:29;97971.94;;;16.78
72236;BMP280;60146;52.498;13.462;2023-11-19T13:27:55;97993.53;;;16.66
72236;BMP280;60146;52.498;13.462;2023-11-19T13:30:22;97881.66;;;16.02
72236;BMP280;60146;52.498;13.462;2023-11-19T13:32:48;97725.00;;;15.42
72236;BMP280;60146;52.498;13.462;2023-11-19T13:35:13;97614.34;;;14.97
72236;BMP280;60146;52.498;13.462;2023-11-19T13:37:39;97509.00;;;14.77
72236;BMP280;60146;52.498;13.462;2023-11-19T13:40:06;97485.00;;;14.58
72236;BMP280;60146;52.498;13.462;2023-11-19T13:42:32;97401.16;;;14.39
72236;BMP280;60146;52.498;13.462;2023-11-19T13:44:57;97373.75;;;14.30
72236;BMP280;60146;52.498;13.462;2023-11-19T13:47:22;97345.91;;;14.22
72236;BMP280;60146;52.498;13.462;2023-11-19T13:49:49;97303.91;;;14.09
72236;BMP280;60146;52.498;13.462;2023-11-19T13:52:14;97239.28;;;13.87
72236;BMP280;60146;52.498;13.462;2023-11-19T13:54:39;97237.06;;;13.89
72236;BMP280;60146;52.498;13.462;2023-11-19T13:57:05;97207.78;;;13.80
72236;BMP280;60146;52.498;13.462;2023-11-19T13:59:31;97161.59;;;13.66
72236;BMP280;60146;52.498;13.462;2023-11-19T14:01:57;97131.59;;;13.60
72236;BMP280;60146;52.498;13.462;2023-11-19T14:04:23;97098.16;;;13.57
72236;BMP280;60146;52.498;13.462;2023-11-19T14:06:48;97073.72;;;13.60
72236;BMP280;60146;52.498;13.462;2023-11-19T14:09:13;97113.97;;;13.54
72236;BMP280;60146;52.498;13.462;2023-11-19T14:11:39;97047.16;;;13.44
72236;BMP280;60146;52.498;13.462;2023-11-19T14:14:04;97047.16;;;13.44
72236;BMP280;60146;52.498;13.462;2023-11-19T14:16:29;97035.47;;;13.49
72236;BMP280;60146;52.498;13.462;2023-11-19T14:18:55;97034.72;;;13.48
72236;BMP280;60146;52.498;13.462;2023-11-19T14:21:20;96978.09;;;13.34